createdAt,value
2018-12-12T00:01:31.109Z,146.82
2018-12-12T00:04:00.018Z,139.17
2018-12-12T00:06:28.598Z,150.35
2018-12-12T00:08:57.938Z,149.50
2018-12-12T00:11:26.654Z,141.68
2018-12-12T00:13:55.426Z,150.40
2018-12-12T00:16:23.978Z,142.25
2018-12-12T00:18:52.792Z,133.95
2018-12-12T00:21:21.426Z,131.25
2018-12-12T00:23:49.935Z,135.78
2018-12-12T00:26:18.687Z,129.38
2018-12-12T00:28:47.279Z,131.32
2018-12-12T00:31:15.869Z,124.40
2018-12-12T00:33:44.379Z,136.43
2018-12-12T00:36:12.874Z,136.60
2018-12-12T00:38:41.599Z,135.50
2018-12-12T00:41:10.164Z,141.07
2018-12-12T00:43:38.691Z,138.60
2018-12-12T00:46:07.250Z,137.07
2018-12-12T00:48:35.784Z,136.97
2018-12-12T00:51:04.358Z,132.60
2018-12-12T00:53:32.914Z,133.70
2018-12-12T00:56:01.479Z,136.77
2018-12-12T00:58:30.066Z,130.87
2018-12-12T01:00:58.596Z,129.68
2018-12-12T01:03:27.264Z,136.47
2018-12-12T01:05:55.977Z,131.90
2018-12-12T01:08:24.505Z,124.42
2018-12-12T01:10:59.499Z,116.50
2018-12-12T01:13:28.004Z,116.93
2018-12-12T01:15:56.624Z,123.85
2018-12-12T01:18:25.131Z,122.02
2018-12-12T01:20:54.129Z,132.05
2018-12-12T01:23:22.687Z,120.85
2018-12-12T01:25:51.223Z,131.50
2018-12-12T01:28:19.786Z,128.83
2018-12-12T01:30:48.336Z,122.75
2018-12-12T01:33:16.867Z,129.00
2018-12-12T01:35:45.495Z,125.50
2018-12-12T01:38:14.029Z,130.00
2018-12-12T01:40:42.603Z,138.10
2018-12-12T01:43:11.125Z,131.80
2018-12-12T01:45:39.646Z,136.07
2018-12-12T01:48:08.180Z,149.72
2018-12-12T01:50:36.786Z,164.60
2018-12-12T01:53:05.359Z,155.73
2018-12-12T01:55:34.606Z,177.10
2018-12-12T01:58:03.160Z,176.10
2018-12-12T02:00:31.796Z,165.73
2018-12-12T02:03:00.361Z,183.77
2018-12-12T02:05:28.956Z,174.53
2018-12-12T02:07:57.632Z,198.93
2018-12-12T02:10:26.150Z,185.40
2018-12-12T02:13:05.956Z,186.18
2018-12-12T02:15:34.580Z,168.50
2018-12-12T02:18:03.778Z,175.75
2018-12-12T02:20:32.296Z,181.20
2018-12-12T02:23:00.824Z,162.43
2018-12-12T02:25:29.390Z,172.90
2018-12-12T02:27:57.893Z,166.03
2018-12-12T02:30:26.397Z,169.17
2018-12-12T02:32:54.930Z,168.15
2018-12-12T02:35:23.482Z,175.10
2018-12-12T02:37:51.976Z,168.82
2018-12-12T02:40:21.079Z,170.82
2018-12-12T02:42:49.582Z,174.27
2018-12-12T02:45:18.334Z,153.53
2018-12-12T02:47:46.819Z,148.70
2018-12-12T02:50:15.361Z,152.17
2018-12-12T02:52:43.976Z,130.35
2018-12-12T02:55:12.696Z,140.52
2018-12-12T02:57:41.302Z,153.55
2018-12-12T03:00:10.314Z,159.95
2018-12-12T03:02:38.948Z,147.53
2018-12-12T03:05:07.644Z,143.15
2018-12-12T03:07:36.164Z,162.07
2018-12-12T03:10:05.080Z,141.55
2018-12-12T03:12:33.664Z,139.95
2018-12-12T03:15:02.218Z,157.72
2018-12-12T03:17:30.781Z,156.37
2018-12-12T03:19:59.317Z,134.70
2018-12-12T03:22:27.871Z,122.62
2018-12-12T03:24:56.419Z,128.07
2018-12-12T03:27:24.998Z,118.20
2018-12-12T03:29:53.969Z,112.75
2018-12-12T03:32:22.489Z,112.03
2018-12-12T03:34:51.032Z,108.83
2018-12-12T03:37:19.585Z,122.30
2018-12-12T03:39:48.133Z,111.25
2018-12-12T03:42:16.684Z,111.40
2018-12-12T03:44:45.197Z,117.50
2018-12-12T03:47:13.727Z,123.38
2018-12-12T03:49:42.236Z,122.80
2018-12-12T03:52:10.775Z,118.15
2018-12-12T03:54:39.289Z,119.60
2018-12-12T03:57:07.839Z,129.90
2018-12-12T03:59:36.353Z,126.40
2018-12-12T04:02:04.986Z,129.93
2018-12-12T04:04:33.494Z,169.75
2018-12-12T04:07:02.058Z,162.92
2018-12-12T04:09:30.625Z,152.10
2018-12-12T04:11:59.204Z,141.28
2018-12-12T04:14:27.738Z,154.82
2018-12-12T04:16:56.232Z,157.67
2018-12-12T04:19:24.919Z,138.12
2018-12-12T04:21:53.638Z,137.28
2018-12-12T04:24:24.158Z,134.63
2018-12-12T04:26:52.655Z,132.32
2018-12-12T04:29:21.261Z,113.97
2018-12-12T04:31:49.801Z,127.82
2018-12-12T04:34:18.352Z,120.97
2018-12-12T04:36:46.900Z,141.10
2018-12-12T04:39:15.439Z,182.85
2018-12-12T04:41:44.026Z,194.35
2018-12-12T04:44:12.525Z,162.62
2018-12-12T04:46:41.087Z,118.33
2018-12-12T04:49:09.659Z,114.85
2018-12-12T04:51:38.154Z,135.97
2018-12-12T04:54:06.674Z,133.87
2018-12-12T04:56:35.372Z,113.52
2018-12-12T04:59:04.263Z,133.07
2018-12-12T05:01:32.869Z,107.45
2018-12-12T05:04:01.393Z,114.92
2018-12-12T05:06:29.967Z,111.37
2018-12-12T05:08:58.491Z,111.40
2018-12-12T05:11:27.130Z,115.40
2018-12-12T05:13:55.611Z,106.63
2018-12-12T05:16:24.157Z,110.32
2018-12-12T05:18:52.687Z,102.38
2018-12-12T05:21:21.177Z,98.93
2018-12-12T05:23:49.713Z,86.80
2018-12-12T05:26:18.269Z,93.45
2018-12-12T05:28:46.845Z,99.47
2018-12-12T05:31:15.367Z,104.53
2018-12-12T05:33:44.026Z,102.55
2018-12-12T05:36:12.593Z,94.37
2018-12-12T05:38:41.117Z,89.87
2018-12-12T05:41:09.661Z,91.78
2018-12-12T05:43:38.207Z,92.17
2018-12-12T05:46:07.915Z,83.92
2018-12-12T05:48:36.494Z,91.35
2018-12-12T05:51:05.125Z,95.80
2018-12-12T05:53:33.643Z,91.92
2018-12-12T05:56:02.621Z,102.12
2018-12-12T05:58:31.434Z,111.10
2018-12-12T06:00:59.976Z,121.40
2018-12-12T06:03:28.512Z,106.20
2018-12-12T06:05:57.159Z,100.05
2018-12-12T06:08:25.763Z,100.75
2018-12-12T06:10:55.006Z,102.67
2018-12-12T06:13:23.520Z,106.70
2018-12-12T06:15:52.064Z,112.52
2018-12-12T06:18:20.652Z,109.78
2018-12-12T06:20:49.191Z,108.45
2018-12-12T06:23:17.706Z,119.20
2018-12-12T06:25:46.400Z,106.40
2018-12-12T06:28:14.940Z,107.80
2018-12-12T06:30:43.518Z,93.80
2018-12-12T06:33:12.072Z,101.55
2018-12-12T06:35:40.608Z,105.52
2018-12-12T06:38:09.160Z,105.92
2018-12-12T06:40:37.757Z,121.13
2018-12-12T06:43:06.306Z,112.40
2018-12-12T06:45:34.853Z,114.40
2018-12-12T06:48:03.468Z,104.47
2018-12-12T06:50:32.883Z,102.67
2018-12-12T06:53:01.384Z,102.02
2018-12-12T06:55:29.928Z,110.25
2018-12-12T06:57:58.448Z,123.02
2018-12-12T07:00:28.116Z,137.57
2018-12-12T07:02:56.626Z,126.82
2018-12-12T07:05:25.147Z,107.83
2018-12-12T07:07:53.694Z,102.92
2018-12-12T07:10:22.218Z,96.53
2018-12-12T07:12:50.725Z,100.47
2018-12-12T07:15:19.230Z,97.90
2018-12-12T07:17:47.845Z,94.55
2018-12-12T07:20:16.478Z,215.32
2018-12-12T07:22:45.036Z,92.55
2018-12-12T07:25:13.622Z,91.97
2018-12-12T07:27:42.194Z,100.53
2018-12-12T07:30:10.853Z,106.47
2018-12-12T07:32:39.485Z,106.10
2018-12-12T07:35:08.149Z,107.97
2018-12-12T07:37:36.672Z,118.45
2018-12-12T07:40:05.314Z,105.00
2018-12-12T07:42:33.936Z,108.17
2018-12-12T07:45:02.550Z,100.50
2018-12-12T07:47:31.119Z,85.07
2018-12-12T07:49:59.631Z,84.87
2018-12-12T07:52:28.175Z,90.83
2018-12-12T07:54:56.983Z,96.05
2018-12-12T07:57:25.546Z,95.30
2018-12-12T07:59:54.098Z,97.63
2018-12-12T08:02:23.128Z,91.82
2018-12-12T08:04:58.066Z,96.67
2018-12-12T08:07:26.679Z,103.25
2018-12-12T08:09:55.236Z,114.60
2018-12-12T08:12:23.737Z,111.90
2018-12-12T08:14:52.268Z,88.75
2018-12-12T08:17:20.762Z,96.35
2018-12-12T08:19:49.339Z,90.28
2018-12-12T08:22:17.921Z,88.92
2018-12-12T08:24:46.586Z,88.47
2018-12-12T08:27:15.107Z,79.47
2018-12-12T08:29:43.673Z,87.65
2018-12-12T08:32:12.234Z,82.40
2018-12-12T08:34:40.781Z,82.70
2018-12-12T08:37:09.377Z,76.15
2018-12-12T08:39:37.908Z,90.70
2018-12-12T08:42:06.487Z,81.00
2018-12-12T08:44:35.034Z,83.20
2018-12-12T08:47:03.757Z,77.60
2018-12-12T08:49:32.338Z,82.88
2018-12-12T08:52:00.897Z,77.78
2018-12-12T08:54:29.456Z,75.92
2018-12-12T08:56:58.398Z,82.05
2018-12-12T08:59:26.966Z,81.50
2018-12-12T09:01:55.568Z,83.12
2018-12-12T09:04:24.176Z,81.25
2018-12-12T09:06:52.722Z,79.25
2018-12-12T09:09:21.250Z,80.60
2018-12-12T09:11:49.804Z,88.47
2018-12-12T09:14:18.311Z,84.20
2018-12-12T09:16:46.771Z,83.82
2018-12-12T09:19:15.342Z,85.75
2018-12-12T09:21:43.859Z,80.70
2018-12-12T09:24:12.336Z,81.97
2018-12-12T09:26:40.894Z,72.42
2018-12-12T09:29:09.543Z,78.07
2018-12-12T09:31:38.047Z,73.97
2018-12-12T09:34:06.604Z,74.12
2018-12-12T09:36:35.103Z,78.17
2018-12-12T09:39:05.304Z,70.20
2018-12-12T09:41:33.824Z,73.92
2018-12-12T09:44:02.595Z,73.45
2018-12-12T09:46:31.104Z,71.17
2018-12-12T09:48:59.637Z,69.62
2018-12-12T09:51:28.185Z,76.17
2018-12-12T09:53:56.848Z,72.70
2018-12-12T09:56:25.404Z,71.70
2018-12-12T09:58:53.990Z,64.72
2018-12-12T10:01:23.089Z,62.98
2018-12-12T10:03:51.654Z,64.95
2018-12-12T10:06:20.234Z,71.77
2018-12-12T10:08:48.790Z,79.60
2018-12-12T10:11:17.311Z,77.42
2018-12-12T10:13:45.859Z,101.42
2018-12-12T10:16:14.364Z,66.75
2018-12-12T10:18:42.886Z,71.67
2018-12-12T10:21:11.434Z,63.13
2018-12-12T10:23:39.950Z,61.75
2018-12-12T10:26:08.500Z,67.23
2018-12-12T10:28:37.078Z,60.98
2018-12-12T10:31:05.641Z,67.60
2018-12-12T10:33:37.553Z,63.78
2018-12-12T10:36:04.728Z,69.65
2018-12-12T10:38:33.384Z,67.72
2018-12-12T10:41:02.190Z,70.47
2018-12-12T10:43:30.697Z,70.37
2018-12-12T10:45:59.252Z,70.03
2018-12-12T10:48:27.801Z,72.12
2018-12-12T10:50:56.354Z,67.08
2018-12-12T10:53:24.892Z,70.65
2018-12-12T10:55:53.524Z,69.47
2018-12-12T10:58:22.024Z,74.40
2018-12-12T11:00:56.109Z,75.87
2018-12-12T11:03:29.883Z,63.30
2018-12-12T11:05:58.550Z,59.50
2018-12-12T11:08:27.546Z,57.65
2018-12-12T11:10:56.610Z,60.83
2018-12-12T11:13:25.362Z,61.30
2018-12-12T11:15:54.023Z,58.92
2018-12-12T11:18:23.405Z,65.78
2018-12-12T11:20:51.975Z,62.20
2018-12-12T11:23:20.655Z,60.28
2018-12-12T11:25:49.361Z,54.93
2018-12-12T11:28:18.547Z,58.50
2018-12-12T11:30:47.070Z,54.53
2018-12-12T11:33:15.643Z,64.75
2018-12-12T11:35:44.210Z,64.77
2018-12-12T11:38:12.815Z,79.75
2018-12-12T11:40:41.337Z,67.55
2018-12-12T11:43:09.894Z,67.93
2018-12-12T11:45:38.428Z,72.40
2018-12-12T11:48:07.035Z,66.05
2018-12-12T11:50:35.647Z,72.05
2018-12-12T11:53:04.191Z,68.33
2018-12-12T11:55:33.667Z,77.82
2018-12-12T11:58:02.323Z,86.57
2018-12-12T12:00:30.891Z,80.25
2018-12-12T12:02:59.433Z,68.80
2018-12-12T12:05:28.001Z,66.42
2018-12-12T12:07:56.555Z,70.28
2018-12-12T12:10:25.597Z,68.97
2018-12-12T12:12:54.162Z,66.53
2018-12-12T12:15:22.908Z,66.72
2018-12-12T12:17:51.439Z,68.90
2018-12-12T12:20:20.077Z,53.28
2018-12-12T12:22:48.629Z,52.38
2018-12-12T12:25:17.143Z,54.18
2018-12-12T12:27:45.712Z,53.45
2018-12-12T12:30:14.231Z,49.73
2018-12-12T12:32:42.751Z,54.18
2018-12-12T12:35:11.309Z,51.20
2018-12-12T12:37:39.831Z,51.70
2018-12-12T12:40:08.486Z,64.77
2018-12-12T12:42:37.019Z,67.20
2018-12-12T12:45:06.313Z,61.05
2018-12-12T12:47:34.860Z,62.73
2018-12-12T12:50:03.503Z,52.35
2018-12-12T12:52:32.030Z,47.15
2018-12-12T12:55:00.574Z,42.78
2018-12-12T12:57:29.144Z,44.67
2018-12-12T12:59:57.653Z,39.08
2018-12-12T13:02:26.965Z,42.45
2018-12-12T13:04:55.693Z,43.92
2018-12-12T13:07:24.260Z,48.60
2018-12-12T13:09:53.309Z,62.45
2018-12-12T13:12:21.783Z,40.97
2018-12-12T13:14:50.307Z,40.43
2018-12-12T13:17:18.802Z,44.65
2018-12-12T13:19:47.321Z,46.73
2018-12-12T13:22:15.853Z,49.63
2018-12-12T13:24:44.351Z,49.88
2018-12-12T13:27:12.955Z,53.02
2018-12-12T13:29:41.518Z,52.23
2018-12-12T13:32:10.084Z,73.70
2018-12-12T13:34:38.701Z,73.17
2018-12-12T13:37:07.240Z,55.85
2018-12-12T13:39:35.845Z,42.45
2018-12-12T13:42:04.453Z,44.90
2018-12-12T13:44:33.023Z,45.60
2018-12-12T13:47:01.705Z,48.45
2018-12-12T13:49:30.289Z,70.60
2018-12-12T13:51:58.847Z,52.73
2018-12-12T13:54:27.371Z,288.95
2018-12-12T13:56:55.955Z,257.62
2018-12-12T13:59:24.480Z,121.83
2018-12-12T14:01:53.139Z,207.25
2018-12-12T14:04:22.902Z,183.68
2018-12-12T14:06:51.690Z,136.55
2018-12-12T14:09:20.247Z,95.75
2018-12-12T14:11:48.775Z,48.95
2018-12-12T14:14:17.352Z,49.90
2018-12-12T14:16:45.927Z,42.40
2018-12-12T14:19:14.506Z,65.12
2018-12-12T14:21:43.102Z,94.52
2018-12-12T14:24:11.629Z,67.22
2018-12-12T14:26:40.140Z,60.50
2018-12-12T14:29:08.720Z,59.88
2018-12-12T14:31:37.330Z,109.83
2018-12-12T14:34:05.846Z,64.15
2018-12-12T14:36:34.401Z,71.62
2018-12-12T14:39:03.863Z,59.77
2018-12-12T14:41:32.460Z,61.85
2018-12-12T14:44:01.103Z,57.27
2018-12-12T14:46:29.718Z,61.42
2018-12-12T14:48:58.448Z,72.90
2018-12-12T14:51:27.043Z,72.60
2018-12-12T14:53:55.602Z,61.13
2018-12-12T14:56:24.780Z,65.50
2018-12-12T14:58:56.957Z,89.62
2018-12-12T15:01:25.926Z,71.95
2018-12-12T15:03:54.652Z,64.30
2018-12-12T15:06:23.222Z,72.55
2018-12-12T15:08:51.824Z,74.70
2018-12-12T15:11:20.451Z,76.15
2018-12-12T15:13:54.798Z,82.30
2018-12-12T15:16:23.504Z,79.07
2018-12-12T15:18:52.034Z,78.10
2018-12-12T15:21:26.065Z,73.17
2018-12-12T15:24:06.069Z,80.05
2018-12-12T15:26:38.490Z,76.75
2018-12-12T15:29:08.790Z,82.35
2018-12-12T15:31:39.243Z,86.57
2018-12-12T15:34:07.778Z,84.90
2018-12-12T15:36:42.013Z,82.55
2018-12-12T15:39:11.488Z,99.10
2018-12-12T15:41:49.856Z,92.88
2018-12-12T15:44:24.341Z,86.63
2018-12-12T15:46:55.978Z,82.78
2018-12-12T15:49:25.472Z,84.77
2018-12-12T15:51:54.359Z,79.03
2018-12-12T15:54:22.957Z,76.00
2018-12-12T15:56:55.405Z,80.53
2018-12-12T15:59:23.960Z,77.20
2018-12-12T16:01:52.449Z,79.50
2018-12-12T16:04:30.969Z,77.00
2018-12-12T16:07:04.074Z,86.17
2018-12-12T16:09:33.563Z,83.55
2018-12-12T16:12:05.393Z,84.72
2018-12-12T16:14:37.695Z,116.00
2018-12-12T16:17:07.876Z,84.00
2018-12-12T16:19:38.673Z,81.47
2018-12-12T16:22:07.293Z,83.50
2018-12-12T16:24:35.830Z,80.12
2018-12-12T16:27:06.976Z,78.42
2018-12-12T16:29:38.331Z,75.97
2018-12-12T16:32:09.890Z,87.05
2018-12-12T16:34:46.157Z,83.62
2018-12-12T16:37:15.640Z,81.55
2018-12-12T16:39:48.748Z,99.67
2018-12-12T16:42:20.396Z,97.35
2018-12-12T16:44:53.582Z,77.58
2018-12-12T16:47:22.260Z,72.53
2018-12-12T16:49:50.817Z,78.70
2018-12-12T16:52:22.304Z,71.12
2018-12-12T16:55:07.052Z,75.55
2018-12-12T16:57:45.462Z,79.50
2018-12-12T17:00:19.403Z,77.70
2018-12-12T17:02:50.937Z,70.30
2018-12-12T17:05:21.984Z,65.25
2018-12-12T17:07:58.662Z,65.05
2018-12-12T17:10:29.758Z,62.95
2018-12-12T17:12:58.547Z,55.90
2018-12-12T17:15:35.802Z,56.25
2018-12-12T17:18:11.970Z,59.53
2018-12-12T17:20:45.368Z,44.60
2018-12-12T17:23:14.196Z,45.10
2018-12-12T17:25:42.795Z,43.55
2018-12-12T17:28:11.320Z,44.63
2018-12-12T17:30:39.878Z,47.70
2018-12-12T17:33:08.489Z,49.05
2018-12-12T17:35:37.095Z,57.33
2018-12-12T17:38:05.755Z,64.62
2018-12-12T17:40:34.297Z,71.05
2018-12-12T17:43:02.882Z,71.62
2018-12-12T17:45:31.404Z,54.98
2018-12-12T17:48:00.049Z,49.27
2018-12-12T17:50:28.914Z,48.30
2018-12-12T17:52:57.457Z,49.55
2018-12-12T17:55:26.028Z,49.77
2018-12-12T17:57:54.616Z,48.83
2018-12-12T18:00:23.214Z,48.33
2018-12-12T18:02:51.809Z,54.63
2018-12-12T18:05:20.419Z,57.17
2018-12-12T18:07:49.019Z,69.17
2018-12-12T18:10:18.180Z,61.40
2018-12-12T18:12:46.707Z,55.50
2018-12-12T18:15:15.357Z,60.15
2018-12-12T18:17:44.002Z,51.70
2018-12-12T18:20:12.679Z,55.03
2018-12-12T18:22:41.372Z,62.13
2018-12-12T18:25:10.019Z,105.67
2018-12-12T18:27:38.609Z,180.40
2018-12-12T18:30:08.293Z,102.42
2018-12-12T18:32:36.936Z,50.00
2018-12-12T18:35:05.852Z,43.50
2018-12-12T18:37:34.502Z,45.60
2018-12-12T18:40:03.256Z,47.43
2018-12-12T18:42:31.738Z,52.35
2018-12-12T18:45:00.285Z,56.10
2018-12-12T18:47:28.923Z,51.50
2018-12-12T18:49:57.461Z,50.47
2018-12-12T18:52:26.003Z,50.65
2018-12-12T18:54:55.474Z,55.38
2018-12-12T18:57:24.079Z,50.92
2018-12-12T18:59:53.663Z,72.40
2018-12-12T19:02:22.320Z,77.90
2018-12-12T19:04:50.956Z,101.72
2018-12-12T19:07:20.253Z,77.37
2018-12-12T19:09:49.083Z,73.17
2018-12-12T19:12:17.955Z,52.35
2018-12-12T19:14:51.907Z,89.83
2018-12-12T19:17:20.502Z,87.40
2018-12-12T19:19:49.225Z,79.85
2018-12-12T19:22:18.125Z,83.50
2018-12-12T19:24:46.880Z,79.53
2018-12-12T19:27:15.791Z,68.75
2018-12-12T19:32:37.423Z,64.77
2018-12-12T19:35:08.337Z,69.75
2018-12-12T19:37:38.051Z,59.98
2018-12-12T19:40:07.892Z,76.50
2018-12-12T19:42:36.509Z,75.25
2018-12-12T19:45:06.327Z,75.85
2018-12-12T19:47:35.092Z,120.72
2018-12-12T19:50:03.777Z,80.80
2018-12-12T19:52:33.125Z,86.02
2018-12-12T19:55:01.730Z,77.17
2018-12-12T19:57:30.386Z,75.37
2018-12-12T19:59:59.174Z,79.20
2018-12-12T20:02:27.781Z,78.13
2018-12-12T20:04:56.786Z,74.07
2018-12-12T20:07:26.111Z,82.73
2018-12-12T20:09:54.975Z,77.25
2018-12-12T20:12:24.096Z,76.70
2018-12-12T20:14:55.631Z,88.10
2018-12-12T20:17:24.181Z,73.92
2018-12-12T20:19:53.140Z,77.42
2018-12-12T20:22:22.696Z,63.68
2018-12-12T20:24:51.329Z,70.75
2018-12-12T20:27:19.828Z,71.33
2018-12-12T20:29:48.428Z,72.83
2018-12-12T20:32:16.963Z,83.20
2018-12-12T20:34:45.525Z,68.20
2018-12-12T20:37:14.105Z,108.35
2018-12-12T20:39:42.733Z,72.25
2018-12-12T20:42:11.370Z,63.33
2018-12-12T20:44:39.945Z,63.40
2018-12-12T20:47:08.627Z,59.95
2018-12-12T20:49:38.140Z,63.80
2018-12-12T20:52:13.387Z,60.95
2018-12-12T20:54:42.041Z,64.03
2018-12-12T20:57:10.718Z,67.92
2018-12-12T20:59:39.253Z,66.25
2018-12-12T21:02:07.811Z,72.95
2018-12-12T21:04:36.546Z,73.00
2018-12-12T21:07:05.109Z,73.50
2018-12-12T21:09:33.639Z,62.90
2018-12-12T21:12:02.215Z,65.57
2018-12-12T21:14:30.782Z,60.73
2018-12-12T21:16:59.383Z,57.75
2018-12-12T21:19:27.914Z,89.30
2018-12-12T21:21:56.427Z,84.15
2018-12-12T21:24:25.414Z,76.67
2018-12-12T21:26:54.197Z,87.02
2018-12-12T21:29:23.039Z,63.98
2018-12-12T21:31:51.563Z,65.95
2018-12-12T21:34:20.140Z,62.90
2018-12-12T21:36:48.657Z,67.65
2018-12-12T21:39:17.252Z,62.80
2018-12-12T21:41:45.851Z,63.42
2018-12-12T21:44:14.405Z,62.08
2018-12-12T21:46:42.995Z,66.55
2018-12-12T21:49:11.681Z,61.75
2018-12-12T21:51:40.243Z,62.00
2018-12-12T21:54:08.769Z,61.88
2018-12-12T21:56:37.342Z,53.48
2018-12-12T21:59:06.441Z,60.92
2018-12-12T22:01:34.934Z,61.53
2018-12-12T22:04:03.571Z,56.95
2018-12-12T22:06:32.107Z,59.18
2018-12-12T22:09:00.761Z,59.50
2018-12-12T22:11:29.261Z,59.17
2018-12-12T22:13:57.759Z,51.20
2018-12-12T22:16:26.902Z,46.73
2018-12-12T22:18:56.123Z,51.02
2018-12-12T22:21:24.655Z,56.83
2018-12-12T22:23:53.217Z,54.60
2018-12-12T22:26:21.726Z,59.48
2018-12-12T22:28:50.269Z,52.27
2018-12-12T22:31:18.861Z,58.85
2018-12-12T22:33:47.392Z,64.20
2018-12-12T22:36:15.923Z,50.50
2018-12-12T22:38:44.530Z,55.10
2018-12-12T22:41:13.261Z,56.35
2018-12-12T22:43:41.849Z,53.20
2018-12-12T22:46:10.417Z,54.60
2018-12-12T22:48:39.002Z,54.23
2018-12-12T22:51:07.540Z,49.40
2018-12-12T22:53:36.042Z,45.75
2018-12-12T22:56:04.673Z,47.62
2018-12-12T22:58:33.221Z,47.03
2018-12-12T23:01:07.098Z,53.23
2018-12-12T23:03:36.110Z,55.60
2018-12-12T23:06:05.356Z,51.30
2018-12-12T23:08:33.919Z,54.67
2018-12-12T23:11:02.417Z,51.68
2018-12-12T23:13:30.958Z,54.93
2018-12-12T23:15:59.484Z,49.73
2018-12-12T23:18:28.028Z,46.77
2018-12-12T23:20:56.539Z,53.63
2018-12-12T23:23:25.066Z,50.97
2018-12-12T23:25:53.631Z,70.57
2018-12-12T23:28:22.124Z,90.77
2018-12-12T23:30:50.619Z,61.25
2018-12-12T23:33:19.265Z,52.83
2018-12-12T23:35:47.783Z,49.40
2018-12-12T23:38:16.245Z,47.27
2018-12-12T23:40:44.839Z,47.58
2018-12-12T23:43:13.339Z,43.83
2018-12-12T23:45:41.834Z,34.15
2018-12-12T23:48:10.310Z,37.45
2018-12-12T23:50:38.788Z,35.88
2018-12-12T23:53:07.284Z,35.35
2018-12-12T23:55:35.804Z,35.33
2018-12-12T23:58:04.425Z,43.17
